Time;durP1;ratioP1;P1;durP2;ratioP2;P2;SDS_P1;SDS_P2;PMS_P1;PMS_P2;Temp;Humidity;BMP_temperature;BMP_pressure;BME280_temperature;BME280_humidity;BME280_pressure;Samples;Min_cycle;Max_cycle;Signal;HPM_P1;HPM_P2
2022/04/13 00:00:07;;;;;;;1.90;1.00;;;22.30;44.30;;;;;;4991182;28;20022;-63
2022/04/13 00:02:33;;;;;;;1.50;0.88;;;22.30;44.30;;;;;;4989024;28;20046;-63
2022/04/13 00:04:58;;;;;;;2.15;0.90;;;22.30;44.40;;;;;;4991906;28;20030;-60
2022/04/13 00:07:24;;;;;;;1.73;0.98;;;22.30;44.40;;;;;;4991991;28;22314;-65
2022/04/13 00:09:50;;;;;;;2.13;1.00;;;22.30;44.30;;;;;;4993668;28;20057;-62
2022/04/13 00:12:15;;;;;;;1.85;0.90;;;22.30;44.30;;;;;;4995114;28;20053;-65
2022/04/13 00:14:41;;;;;;;1.92;0.90;;;22.30;44.40;;;;;;4993564;28;20030;-62
2022/04/13 00:17:07;;;;;;;1.00;0.75;;;22.30;44.30;;;;;;4989944;28;20022;-64
2022/04/13 00:19:33;;;;;;;2.78;0.90;;;22.30;44.40;;;;;;4989895;28;20136;-65
2022/04/13 00:21:59;;;;;;;1.55;0.82;;;22.30;44.40;;;;;;4989803;28;20034;-63
2022/04/13 00:24:25;;;;;;;1.52;0.80;;;22.30;44.40;;;;;;4994978;28;20046;-63
2022/04/13 00:26:51;;;;;;;1.52;1.00;;;22.30;44.30;;;;;;4992552;28;20127;-65
2022/04/13 00:29:17;;;;;;;1.63;0.75;;;22.30;44.40;;;;;;4994324;28;20403;-63
2022/04/13 00:31:42;;;;;;;2.17;1.02;;;22.30;44.40;;;;;;4990700;28;20068;-63
2022/04/13 00:34:08;;;;;;;2.50;0.80;;;22.20;44.30;;;;;;4987269;28;20487;-62
2022/04/13 00:36:34;;;;;;;1.50;0.80;;;22.20;44.40;;;;;;4993787;28;20033;-62
2022/04/13 00:38:59;;;;;;;1.17;0.85;;;22.20;44.30;;;;;;4992055;28;20038;-63
2022/04/13 00:41:26;;;;;;;1.45;0.90;;;22.20;44.30;;;;;;4992049;28;20683;-63
2022/04/13 00:44:03;;;;;;;1.52;0.82;;;22.20;44.30;;;;;;4993462;28;20152;-65
2022/04/13 00:46:29;;;;;;;1.80;0.90;;;22.20;44.30;;;;;;4988649;28;20049;-63
2022/04/13 00:48:55;;;;;;;2.13;0.90;;;22.20;44.40;;;;;;4990142;28;20030;-64
2022/04/13 00:51:20;;;;;;;2.17;0.80;;;22.20;44.30;;;;;;4991502;28;20084;-63
2022/04/13 00:53:47;;;;;;;1.63;0.80;;;22.20;44.30;;;;;;4993681;28;20036;-63
2022/04/13 00:56:15;;;;;;;1.60;0.88;;;22.20;44.30;;;;;;4993014;28;20026;-64
2022/04/13 00:58:42;;;;;;;1.90;0.77;;;22.20;44.30;;;;;;4993997;28;20047;-63
2022/04/13 01:01:08;;;;;;;1.60;0.77;;;22.10;44.30;;;;;;4990988;28;20572;-65
2022/04/13 01:03:36;;;;;;;1.38;0.80;;;22.10;44.30;;;;;;4988279;28;20030;-65
2022/04/13 01:06:03;;;;;;;1.77;0.82;;;22.20;44.30;;;;;;4992338;28;20120;-63
2022/04/13 01:08:29;;;;;;;1.33;0.80;;;22.10;44.30;;;;;;4995860;28;20033;-63
2022/04/13 01:10:56;;;;;;;1.15;0.70;;;22.10;44.30;;;;;;4993764;28;20509;-61
2022/04/13 01:13:22;;;;;;;1.55;0.95;;;22.10;44.30;;;;;;4993090;28;20508;-65
2022/04/13 01:15:48;;;;;;;1.55;0.90;;;22.10;44.30;;;;;;4994337;28;20058;-62
2022/04/13 01:18:14;;;;;;;1.65;0.90;;;22.10;44.30;;;;;;4991736;28;20021;-65
2022/04/13 01:20:52;;;;;;;1.35;0.80;;;22.10;44.30;;;;;;4990314;28;20041;-63
2022/04/13 01:23:21;;;;;;;2.43;0.90;;;22.10;44.30;;;;;;4992219;28;20038;-63
2022/04/13 01:25:52;;;;;;;2.25;1.00;;;22.10;44.30;;;;;;4990761;28;20310;-63
2022/04/13 01:28:18;;;;;;;1.10;0.70;;;22.10;44.30;;;;;;4991901;28;20061;-62
2022/04/13 01:30:44;;;;;;;0.93;0.70;;;22.10;44.30;;;;;;4990349;28;20042;-62
2022/04/13 01:33:10;;;;;;;1.95;0.88;;;22.10;44.30;;;;;;4989072;28;20110;-63
2022/04/13 01:35:36;;;;;;;1.55;0.90;;;22.10;44.30;;;;;;4991282;28;20041;-60
2022/04/13 01:38:02;;;;;;;1.40;0.80;;;22.10;44.30;;;;;;4993618;28;20034;-60
2022/04/13 01:40:28;;;;;;;2.20;0.90;;;22.00;44.30;;;;;;4991589;28;20037;-62
2022/04/13 01:42:53;;;;;;;1.10;0.90;;;22.00;44.30;;;;;;4993382;28;20037;-62
2022/04/13 01:45:22;;;;;;;1.40;0.73;;;22.00;44.30;;;;;;4994969;28;20029;-63
2022/04/13 01:47:50;;;;;;;1.73;0.90;;;22.00;44.30;;;;;;4995091;28;20036;-63
2022/04/13 01:50:18;;;;;;;1.45;0.80;;;22.00;44.30;;;;;;4994580;28;20080;-62
2022/04/13 01:52:45;;;;;;;0.90;0.80;;;22.00;44.30;;;;;;4995570;28;20053;-65
2022/04/13 01:55:11;;;;;;;1.58;0.80;;;22.00;44.20;;;;;;4997496;28;20029;-60
2022/04/13 01:57:38;;;;;;;1.05;0.70;;;22.00;44.30;;;;;;4993540;28;20518;-63
2022/04/13 02:00:09;;;;;;;1.38;0.77;;;22.00;44.30;;;;;;4996001;28;20018;-65
2022/04/13 02:02:35;;;;;;;1.88;0.70;;;22.00;44.30;;;;;;4992157;28;20148;-65
2022/04/13 02:05:01;;;;;;;1.48;0.77;;;22.00;44.30;;;;;;4996249;28;20021;-62
2022/04/13 02:07:27;;;;;;;1.20;0.70;;;22.00;44.30;;;;;;4992995;28;20034;-63
2022/04/13 02:09:56;;;;;;;2.58;0.90;;;22.00;44.30;;;;;;4995948;28;20026;-62
2022/04/13 02:12:22;;;;;;;0.82;0.70;;;22.00;44.30;;;;;;4996044;28;20063;-66
2022/04/13 02:14:47;;;;;;;1.38;0.85;;;21.90;44.20;;;;;;4996369;28;20820;-63
2022/04/13 02:17:16;;;;;;;1.63;0.82;;;21.90;44.20;;;;;;4992689;28;20041;-63
2022/04/13 02:19:43;;;;;;;1.27;0.70;;;21.90;44.20;;;;;;4990644;28;20026;-63
2022/04/13 02:22:09;;;;;;;1.00;0.70;;;22.00;44.30;;;;;;4995376;28;20041;-62
2022/04/13 02:24:40;;;;;;;1.08;0.70;;;21.90;44.20;;;;;;4995785;28;20088;-63
2022/04/13 02:27:07;;;;;;;1.65;0.95;;;21.90;44.20;;;;;;4995254;28;20034;-63
2022/04/13 02:29:36;;;;;;;1.17;0.80;;;21.90;44.20;;;;;;4995249;28;20038;-63
2022/04/13 02:32:03;;;;;;;1.33;0.70;;;21.90;44.20;;;;;;4990219;28;20049;-66
2022/04/13 02:34:29;;;;;;;1.55;0.85;;;21.90;44.20;;;;;;4992824;28;20040;-63
2022/04/13 02:36:55;;;;;;;1.40;0.90;;;21.90;44.20;;;;;;4993622;28;20038;-62
2022/04/13 02:39:20;;;;;;;1.70;0.77;;;21.90;44.20;;;;;;4995837;28;20037;-63
2022/04/13 02:41:46;;;;;;;1.58;0.80;;;21.90;44.20;;;;;;4991965;28;20038;-63
2022/04/13 02:44:12;;;;;;;0.93;0.60;;;21.90;44.30;;;;;;4995145;28;20042;-63
2022/04/13 02:46:38;;;;;;;0.70;0.50;;;21.90;44.20;;;;;;4992699;28;20466;-66
2022/04/13 02:49:03;;;;;;;1.63;0.70;;;21.90;44.30;;;;;;4994404;28;20018;-62
2022/04/13 02:51:29;;;;;;;2.03;0.80;;;21.90;44.30;;;;;;4991754;28;20042;-63
2022/04/13 02:53:54;;;;;;;0.88;0.70;;;21.90;44.30;;;;;;4992933;28;20393;-63
2022/04/13 02:56:20;;;;;;;1.13;0.70;;;21.90;44.30;;;;;;4994626;28;20033;-63
2022/04/13 02:58:46;;;;;;;1.00;0.70;;;21.90;44.20;;;;;;4994674;28;20624;-65
2022/04/13 03:01:12;;;;;;;0.80;0.70;;;21.80;44.20;;;;;;4991228;28;20065;-63
2022/04/13 03:03:37;;;;;;;0.80;0.65;;;21.80;44.20;;;;;;4990955;28;20104;-61
2022/04/13 03:06:03;;;;;;;0.93;0.70;;;21.80;44.20;;;;;;4995839;28;20033;-63
2022/04/13 03:08:29;;;;;;;0.88;0.70;;;21.90;44.30;;;;;;4995299;28;20036;-62
2022/04/13 03:10:54;;;;;;;0.73;0.70;;;21.80;44.20;;;;;;4992515;28;20057;-63
2022/04/13 03:13:21;;;;;;;1.10;0.70;;;21.80;44.20;;;;;;4993776;28;20038;-63
2022/04/13 03:15:46;;;;;;;0.90;0.68;;;21.80;44.20;;;;;;5004325;28;20037;-61
2022/04/13 03:18:12;;;;;;;0.73;0.60;;;21.80;44.20;;;;;;4990714;28;20025;-63
2022/04/13 03:20:37;;;;;;;0.80;0.80;;;21.80;44.20;;;;;;4992771;28;20766;-63
2022/04/13 03:23:04;;;;;;;1.25;0.80;;;21.80;44.20;;;;;;4995751;28;20030;-61
2022/04/13 03:25:30;;;;;;;1.58;0.90;;;21.80;44.20;;;;;;4993267;28;20033;-66
2022/04/13 03:27:55;;;;;;;1.25;0.68;;;21.80;44.20;;;;;;4992681;28;20033;-61
2022/04/13 03:30:22;;;;;;;1.10;0.75;;;21.80;44.20;;;;;;4992601;28;20034;-65
2022/04/13 03:32:50;;;;;;;1.10;0.75;;;21.80;44.20;;;;;;4992651;28;20205;-62
2022/04/13 03:35:16;;;;;;;1.00;0.70;;;21.80;44.20;;;;;;4994781;28;20119;-65
2022/04/13 03:37:42;;;;;;;0.70;0.70;;;21.80;44.20;;;;;;4996043;28;20114;-62
2022/04/13 03:40:09;;;;;;;1.08;0.70;;;21.80;44.70;;;;;;4991436;28;20032;-63
2022/04/13 03:42:36;;;;;;;1.27;0.70;;;21.80;44.20;;;;;;4994446;28;20029;-62
2022/04/13 03:45:07;;;;;;;1.05;0.70;;;21.70;44.20;;;;;;4993218;28;20022;-63
2022/04/13 03:47:33;;;;;;;0.77;0.70;;;21.80;44.20;;;;;;4991333;28;20022;-64
2022/04/13 03:49:59;;;;;;;1.20;0.70;;;21.80;44.20;;;;;;4994941;28;20136;-63
2022/04/13 03:52:25;;;;;;;1.27;0.90;;;21.70;44.20;;;;;;4991531;28;20121;-62
2022/04/13 03:54:50;;;;;;;0.75;0.60;;;21.70;44.20;;;;;;4992607;28;20045;-63
2022/04/13 03:57:16;;;;;;;1.63;1.08;;;21.70;44.20;;;;;;4993713;28;20038;-63
2022/04/13 03:59:42;;;;;;;1.23;0.70;;;21.70;44.20;;;;;;4992573;28;20022;-64
2022/04/13 04:02:07;;;;;;;0.60;0.60;;;21.70;44.20;;;;;;4988081;28;20044;-63
2022/04/13 04:04:33;;;;;;;0.75;0.60;;;21.70;44.20;;;;;;4993208;28;20540;-63
2022/04/13 04:06:59;;;;;;;1.30;0.82;;;21.70;44.20;;;;;;4992582;28;20109;-62
2022/04/13 04:09:24;;;;;;;1.85;0.90;;;21.70;44.20;;;;;;4994685;28;21204;-65
2022/04/13 04:11:50;;;;;;;1.00;0.70;;;21.70;44.20;;;;;;4992604;28;20048;-65
2022/04/13 04:14:15;;;;;;;0.68;0.60;;;21.70;44.10;;;;;;4994617;28;20024;-61
2022/04/13 04:16:41;;;;;;;0.88;0.60;;;21.70;44.20;;;;;;4990648;28;20030;-63
2022/04/13 04:19:07;;;;;;;1.40;0.73;;;21.70;44.20;;;;;;5000685;28;20397;-65
2022/04/13 04:21:32;;;;;;;1.00;0.70;;;21.70;44.20;;;;;;4991020;28;20038;-65
2022/04/13 04:23:58;;;;;;;0.88;0.60;;;21.70;44.20;;;;;;4993613;28;20912;-62
2022/04/13 04:26:23;;;;;;;0.95;0.70;;;21.70;44.20;;;;;;4991895;28;20049;-62
2022/04/13 04:28:49;;;;;;;0.80;0.60;;;21.70;44.20;;;;;;4993213;28;21543;-64
2022/04/13 04:31:19;;;;;;;0.85;0.70;;;21.70;44.20;;;;;;4989882;28;20057;-64
2022/04/13 04:33:45;;;;;;;0.82;0.70;;;21.60;44.20;;;;;;4990318;28;20028;-62
2022/04/13 04:36:11;;;;;;;1.10;0.70;;;21.60;44.20;;;;;;4994432;28;21334;-62
2022/04/13 04:38:37;;;;;;;0.90;0.63;;;21.60;44.20;;;;;;4993984;28;20111;-65
2022/04/13 04:41:03;;;;;;;1.02;0.70;;;21.60;44.70;;;;;;4991943;28;20029;-61
2022/04/13 04:43:29;;;;;;;0.98;0.70;;;21.60;44.20;;;;;;4990869;28;20033;-62
2022/04/13 04:45:55;;;;;;;1.02;0.70;;;21.60;44.10;;;;;;4990269;28;20029;-65
2022/04/13 04:48:20;;;;;;;0.95;0.80;;;21.60;44.20;;;;;;4991163;28;20135;-63
2022/04/13 04:50:46;;;;;;;1.05;0.70;;;21.60;44.10;;;;;;4993065;28;20030;-63
2022/04/13 04:53:12;;;;;;;1.95;0.70;;;21.60;44.10;;;;;;4990960;28;20109;-66
2022/04/13 04:55:37;;;;;;;0.65;0.60;;;21.60;44.20;;;;;;4982778;28;20029;-63
2022/04/13 04:58:03;;;;;;;0.68;0.60;;;21.60;44.20;;;;;;4988206;28;20501;-62
2022/04/13 05:00:35;;;;;;;0.95;0.68;;;21.60;44.10;;;;;;4987414;28;20065;-65
2022/04/13 05:03:00;;;;;;;0.85;0.70;;;21.60;44.20;;;;;;4993142;28;20033;-65
2022/04/13 05:05:26;;;;;;;1.15;0.73;;;21.60;44.20;;;;;;4990069;28;20022;-65
2022/04/13 05:07:51;;;;;;;1.02;0.70;;;21.60;44.20;;;;;;4990188;28;20026;-62
2022/04/13 05:10:17;;;;;;;1.10;0.70;;;21.60;44.20;;;;;;4991234;28;20022;-63
2022/04/13 05:12:53;;;;;;;0.70;0.68;;;21.60;44.20;;;;;;4987132;28;20162;-62
2022/04/13 05:15:19;;;;;;;1.20;0.80;;;21.60;44.20;;;;;;4988481;28;20521;-62
2022/04/13 05:17:45;;;;;;;0.80;0.70;;;21.60;44.20;;;;;;4994727;28;20034;-62
2022/04/13 05:20:11;;;;;;;0.65;0.65;;;21.60;44.20;;;;;;5007414;28;20014;-63
2022/04/13 05:22:37;;;;;;;0.95;0.65;;;21.60;44.70;;;;;;4996313;28;20036;-61
2022/04/13 05:25:11;;;;;;;1.13;0.77;;;21.60;44.20;;;;;;4997847;28;20034;-62
2022/04/13 05:27:36;;;;;;;1.10;0.68;;;21.50;44.10;;;;;;4995705;28;20033;-61
2022/04/13 05:30:04;;;;;;;0.88;0.70;;;21.50;44.20;;;;;;4994191;28;20030;-64
2022/04/13 05:32:30;;;;;;;1.25;0.80;;;21.50;44.10;;;;;;4986686;28;20041;-63
2022/04/13 05:35:00;;;;;;;1.42;0.77;;;21.50;44.10;;;;;;4993704;28;20022;-63
2022/04/13 05:37:27;;;;;;;1.00;0.70;;;21.50;44.10;;;;;;4995222;28;20478;-63
2022/04/13 05:39:53;;;;;;;0.98;0.70;;;21.50;44.10;;;;;;4998791;28;20316;-63
2022/04/13 05:42:25;;;;;;;0.60;0.50;;;21.50;44.10;;;;;;4996101;28;20103;-62
2022/04/13 05:44:51;;;;;;;0.90;0.65;;;21.50;44.10;;;;;;4994069;28;20026;-63
2022/04/13 05:47:17;;;;;;;0.98;0.60;;;21.50;44.10;;;;;;4994974;28;20109;-64
2022/04/13 05:49:43;;;;;;;0.90;0.63;;;21.50;44.10;;;;;;4996495;28;20092;-65
2022/04/13 05:52:08;;;;;;;0.95;0.70;;;21.50;44.20;;;;;;4995086;28;20025;-64
2022/04/13 05:54:34;;;;;;;0.60;0.60;;;21.50;44.10;;;;;;4996453;28;20092;-63
2022/04/13 05:57:02;;;;;;;0.77;0.65;;;21.50;44.20;;;;;;4996579;28;20030;-62
2022/04/13 05:59:28;;;;;;;0.98;0.70;;;21.50;44.10;;;;;;4992802;28;20047;-63
2022/04/13 06:01:54;;;;;;;0.90;0.80;;;21.50;44.10;;;;;;4990073;28;20509;-63
2022/04/13 06:04:20;;;;;;;0.88;0.70;;;21.50;44.10;;;;;;4993887;28;20088;-60
2022/04/13 06:06:45;;;;;;;1.13;0.73;;;21.50;44.10;;;;;;4991958;28;20405;-63
2022/04/13 06:09:11;;;;;;;0.80;0.60;;;21.50;44.10;;;;;;5012622;28;20032;-62
2022/04/13 06:11:36;;;;;;;1.00;0.70;;;21.40;44.10;;;;;;4995753;28;20026;-61
2022/04/13 06:14:02;;;;;;;1.20;0.77;;;21.40;44.00;;;;;;4994956;28;20108;-64
2022/04/13 06:16:28;;;;;;;0.88;0.70;;;21.40;44.00;;;;;;4991821;28;20029;-64
2022/04/13 06:18:54;;;;;;;0.93;0.80;;;21.40;44.00;;;;;;4993695;28;20018;-63
2022/04/13 06:21:19;;;;;;;0.82;0.70;;;21.40;43.90;;;;;;4995216;28;21717;-65
2022/04/13 06:23:46;;;;;;;0.93;0.70;;;21.40;43.90;;;;;;4995911;28;20033;-63
2022/04/13 06:26:12;;;;;;;0.93;0.70;;;21.40;43.90;;;;;;4996264;28;20038;-63
2022/04/13 06:28:37;;;;;;;1.05;0.80;;;21.40;44.00;;;;;;4993318;28;20676;-64
2022/04/13 06:31:03;;;;;;;1.13;0.70;;;21.40;43.90;;;;;;4990516;28;20049;-63
2022/04/13 06:33:28;;;;;;;0.85;0.70;;;21.40;43.90;;;;;;4992330;28;20032;-62
2022/04/13 06:35:54;;;;;;;1.08;0.80;;;21.40;43.90;;;;;;4993193;28;20054;-62
2022/04/13 06:38:19;;;;;;;0.73;0.70;;;21.40;43.80;;;;;;4994079;28;20026;-63
2022/04/13 06:40:45;;;;;;;1.00;0.60;;;21.40;43.80;;;;;;4993575;28;20095;-63
2022/04/13 06:43:10;;;;;;;1.10;0.77;;;21.40;43.80;;;;;;4996376;28;20033;-60
2022/04/13 06:45:36;;;;;;;1.52;0.80;;;21.40;43.80;;;;;;4992479;28;20038;-62
2022/04/13 06:48:03;;;;;;;1.58;0.80;;;21.40;43.80;;;;;;4993429;28;20418;-63
2022/04/13 06:50:28;;;;;;;1.38;0.80;;;21.40;43.90;;;;;;4992817;28;20858;-62
2022/04/13 06:52:54;;;;;;;1.25;0.70;;;21.40;43.80;;;;;;4995888;28;20030;-65
2022/04/13 06:55:20;;;;;;;1.35;0.90;;;21.40;43.80;;;;;;4995573;28;20148;-63
2022/04/13 06:57:46;;;;;;;1.20;0.77;;;21.40;43.80;;;;;;4991296;28;20125;-61
2022/04/13 07:00:12;;;;;;;0.98;0.80;;;21.40;43.80;;;;;;4990883;28;20029;-62
2022/04/13 07:02:40;;;;;;;1.17;0.80;;;21.40;43.80;;;;;;4993275;28;20030;-65
2022/04/13 07:05:06;;;;;;;1.33;0.80;;;21.40;43.80;;;;;;4991059;28;20033;-60
2022/04/13 07:07:32;;;;;;;1.08;0.80;;;21.40;43.80;;;;;;4994423;28;20402;-60
2022/04/13 07:09:58;;;;;;;1.20;0.80;;;21.40;43.70;;;;;;4993744;28;20146;-64
2022/04/13 07:12:23;;;;;;;1.90;1.00;;;21.40;43.70;;;;;;4993452;28;20796;-61
2022/04/13 07:14:49;;;;;;;1.58;0.88;;;21.40;43.70;;;;;;4992840;28;20033;-62
2022/04/13 07:17:14;;;;;;;1.58;0.80;;;21.40;43.70;;;;;;4992268;28;20367;-62
2022/04/13 07:19:40;;;;;;;1.83;0.90;;;21.40;43.70;;;;;;4991225;28;20095;-59
2022/04/13 07:22:06;;;;;;;1.10;0.80;;;21.40;43.70;;;;;;4992049;28;20403;-63
2022/04/13 07:24:32;;;;;;;1.58;0.90;;;21.40;43.80;;;;;;4994919;28;20037;-64
2022/04/13 07:26:57;;;;;;;1.58;1.00;;;21.40;43.80;;;;;;4994682;28;20843;-64
2022/04/13 07:29:24;;;;;;;1.40;0.90;;;21.40;43.90;;;;;;4991871;28;20060;-60
2022/04/13 07:31:50;;;;;;;1.10;0.80;;;21.40;43.90;;;;;;4991606;28;20111;-62
2022/04/13 07:34:15;;;;;;;1.27;0.80;;;21.40;43.90;;;;;;4994603;28;20034;-64
2022/04/13 07:36:41;;;;;;;1.48;1.15;;;21.30;43.80;;;;;;4993111;28;20034;-61
2022/04/13 07:39:06;;;;;;;1.40;1.00;;;21.40;43.90;;;;;;4994461;28;20034;-62
2022/04/13 07:41:32;;;;;;;1.60;1.00;;;21.40;43.90;;;;;;4991892;28;20030;-64
2022/04/13 07:44:00;;;;;;;1.70;1.00;;;21.40;43.80;;;;;;4994284;28;20494;-61
2022/04/13 07:46:27;;;;;;;2.00;0.90;;;21.30;43.80;;;;;;4990418;28;20378;-62
2022/04/13 07:48:53;;;;;;;2.20;1.08;;;21.40;43.80;;;;;;4990652;28;20121;-61
2022/04/13 07:51:19;;;;;;;2.30;1.20;;;21.30;43.70;;;;;;4992357;28;20446;-62
2022/04/13 07:53:45;;;;;;;1.75;1.10;;;21.40;43.80;;;;;;4994463;28;20029;-64
2022/04/13 07:56:10;;;;;;;1.80;1.10;;;21.30;43.70;;;;;;4992832;28;20022;-63
2022/04/13 07:58:36;;;;;;;1.73;1.00;;;21.40;43.70;;;;;;4992320;28;20038;-62
2022/04/13 08:01:02;;;;;;;1.90;1.20;;;21.40;43.70;;;;;;4988204;28;20046;-64
2022/04/13 08:03:27;;;;;;;1.55;1.00;;;21.40;43.70;;;;;;4991767;28;20149;-64
2022/04/13 08:05:53;;;;;;;1.52;1.00;;;21.40;43.70;;;;;;4992406;28;20033;-60
2022/04/13 08:08:19;;;;;;;1.23;0.90;;;21.30;43.60;;;;;;4995090;28;20038;-62
2022/04/13 08:10:46;;;;;;;1.23;0.80;;;21.30;43.60;;;;;;4993925;28;20517;-61
2022/04/13 08:13:12;;;;;;;1.67;1.05;;;21.30;43.60;;;;;;4994051;28;20111;-62
2022/04/13 08:15:38;;;;;;;1.73;1.10;;;21.30;43.60;;;;;;4994375;28;20065;-61
2022/04/13 08:18:04;;;;;;;1.90;1.10;;;21.30;43.60;;;;;;4990045;28;20070;-63
2022/04/13 08:20:30;;;;;;;1.90;1.00;;;21.30;43.60;;;;;;4993038;28;20045;-61
2022/04/13 08:22:57;;;;;;;3.17;1.10;;;21.30;43.70;;;;;;4994084;28;20033;-64
2022/04/13 08:25:23;;;;;;;2.50;1.10;;;21.30;43.70;;;;;;4993814;28;20691;-63
2022/04/13 08:27:48;;;;;;;1.95;1.00;;;21.30;43.80;;;;;;4993915;28;20041;-64
2022/04/13 08:30:14;;;;;;;1.88;0.90;;;21.30;43.70;;;;;;4993069;28;20026;-62
2022/04/13 08:32:40;;;;;;;2.35;1.10;;;21.30;43.80;;;;;;4991390;28;20025;-64
2022/04/13 08:35:09;;;;;;;1.75;1.00;;;21.30;43.80;;;;;;4992396;28;20367;-60
2022/04/13 08:37:35;;;;;;;1.95;1.00;;;21.30;43.80;;;;;;4994539;28;20030;-61
2022/04/13 08:40:01;;;;;;;1.88;1.10;;;21.30;43.80;;;;;;4993141;28;20052;-62
2022/04/13 08:42:41;;;;;;;2.83;0.93;;;21.30;43.90;;;;;;4993139;28;20034;-63
2022/04/13 08:45:18;;;;;;;1.80;0.90;;;21.30;43.90;;;;;;4993400;28;20112;-64
2022/04/13 08:47:46;;;;;;;1.75;1.00;;;21.30;43.90;;;;;;4993919;28;20551;-62
2022/04/13 08:50:12;;;;;;;1.85;1.00;;;21.30;43.90;;;;;;4991762;28;20125;-63
2022/04/13 08:52:40;;;;;;;2.58;1.10;;;21.30;44.00;;;;;;4990469;28;20108;-64
2022/04/13 08:55:11;;;;;;;2.22;1.15;;;21.30;44.00;;;;;;4998564;28;20025;-62
2022/04/13 08:57:46;;;;;;;2.00;1.10;;;21.30;44.00;;;;;;4997667;28;20030;-61
2022/04/13 09:00:22;;;;;;;2.08;1.10;;;21.30;44.00;;;;;;4994626;28;20576;-63
2022/04/13 09:02:47;;;;;;;1.88;0.90;;;21.30;44.10;;;;;;4993498;28;20034;-63
2022/04/13 09:05:23;;;;;;;1.85;1.10;;;21.30;44.10;;;;;;4997619;28;20092;-64
2022/04/13 09:08:09;;;;;;;1.85;1.00;;;21.30;44.10;;;;;;4997210;28;20038;-59
2022/04/13 09:10:36;;;;;;;2.45;1.05;;;21.30;44.10;;;;;;4996924;28;20752;-63
2022/04/13 09:13:02;;;;;;;2.35;1.10;;;21.30;44.20;;;;;;4994811;28;20545;-64
2022/04/13 09:15:29;;;;;;;2.15;1.00;;;21.30;44.20;;;;;;4995984;28;21758;-63
2022/04/13 09:17:55;;;;;;;2.30;1.00;;;21.30;44.20;;;;;;4995065;28;20112;-60
2022/04/13 09:20:21;;;;;;;2.28;1.10;;;21.30;44.20;;;;;;4991633;28;20025;-60
2022/04/13 09:22:49;;;;;;;2.25;1.00;;;21.30;44.20;;;;;;4997873;28;20037;-64
2022/04/13 09:25:18;;;;;;;2.53;1.10;;;21.30;44.20;;;;;;4995684;28;20052;-62
2022/04/13 09:27:45;;;;;;;2.45;1.02;;;21.30;44.30;;;;;;4994605;28;20116;-64
2022/04/13 09:30:10;;;;;;;2.08;0.93;;;21.30;44.30;;;;;;4992673;28;21234;-63
2022/04/13 09:32:36;;;;;;;1.80;1.00;;;21.30;44.30;;;;;;4989168;28;20033;-62
2022/04/13 09:35:03;;;;;;;1.80;1.00;;;21.30;44.30;;;;;;4995517;28;20494;-62
2022/04/13 09:37:28;;;;;;;2.75;1.10;;;21.30;44.30;;;;;;4993712;28;20170;-63
2022/04/13 09:39:55;;;;;;;2.88;0.90;;;21.30;44.30;;;;;;4995576;28;20478;-63
2022/04/13 09:42:26;;;;;;;2.40;1.10;;;21.30;44.30;;;;;;4992191;28;20034;-64
2022/04/13 09:44:56;;;;;;;2.33;1.10;;;21.30;44.30;;;;;;4991508;28;20136;-62
2022/04/13 09:47:23;;;;;;;2.63;1.20;;;21.30;44.30;;;;;;4992538;28;20022;-64
2022/04/13 09:49:53;;;;;;;2.17;1.13;;;21.30;44.40;;;;;;4996760;28;20764;-62
2022/04/13 09:52:40;;;;;;;2.50;1.00;;;21.30;44.30;;;;;;4997763;28;20037;-61
2022/04/13 09:55:07;;;;;;;2.08;1.00;;;21.30;44.40;;;;;;4998754;28;20052;-65
2022/04/13 09:57:33;;;;;;;2.25;1.13;;;21.30;44.40;;;;;;4998271;28;20030;-64
2022/04/13 10:00:00;;;;;;;1.80;0.90;;;21.30;44.40;;;;;;4997150;28;20037;-65
2022/04/13 10:02:40;;;;;;;2.13;1.20;;;21.30;44.40;;;;;;4996360;28;20445;-61
2022/04/13 10:05:08;;;;;;;2.40;1.20;;;21.30;44.40;;;;;;4996495;28;20034;-60
2022/04/13 10:07:34;;;;;;;2.40;1.20;;;21.30;44.40;;;;;;4997034;28;20064;-60
2022/04/13 10:10:03;;;;;;;2.53;1.38;;;21.30;44.30;;;;;;4996654;28;20465;-63
2022/04/13 10:12:45;;;;;;;2.10;1.10;;;21.30;44.30;;;;;;4995282;28;20505;-62
2022/04/13 10:15:11;;;;;;;3.35;1.20;;;21.30;44.80;;;;;;4986598;28;22097;-63
2022/04/13 10:17:38;;;;;;;1.85;1.13;;;21.30;44.20;;;;;;4988045;28;20081;-61
2022/04/13 10:20:05;;;;;;;2.30;1.40;;;21.30;44.20;;;;;;4991218;28;20034;-64
2022/04/13 10:22:30;;;;;;;3.88;1.50;;;21.30;44.20;;;;;;4994233;28;20041;-64
2022/04/13 10:25:16;;;;;;;2.45;1.20;;;21.30;44.10;;;;;;4995491;28;20025;-62
2022/04/13 10:27:56;;;;;;;2.95;1.40;;;21.30;44.20;;;;;;4993742;28;20034;-62
2022/04/13 10:30:36;;;;;;;2.58;1.40;;;21.30;44.20;;;;;;4996059;28;20037;-64
2022/04/13 10:33:07;;;;;;;2.45;1.20;;;21.30;44.10;;;;;;4995232;28;20049;-62
2022/04/13 10:35:35;;;;;;;1.83;1.10;;;21.30;44.20;;;;;;4992006;28;20458;-60
2022/04/13 10:38:02;;;;;;;2.55;1.20;;;21.30;44.10;;;;;;4985468;28;20117;-62
2022/04/13 10:40:31;;;;;;;2.25;1.13;;;21.30;44.10;;;;;;4992053;28;20041;-61
2022/04/13 10:43:00;;;;;;;2.50;1.27;;;21.30;44.10;;;;;;4993754;28;20034;-62
2022/04/13 10:45:30;;;;;;;2.63;1.20;;;21.30;44.10;;;;;;4993880;28;20022;-62
2022/04/13 10:48:00;;;;;;;;;;;21.30;44.10;;;;;;4991810;28;20083;-59
2022/04/13 10:50:51;;;;;;;1.77;1.02;;;21.30;44.10;;;;;;4993963;28;19909;-64
2022/04/13 10:53:35;;;;;;;2.58;1.30;;;21.40;44.10;;;;;;4995755;28;20056;-62
2022/04/13 10:56:05;;;;;;;2.67;1.30;;;21.30;44.00;;;;;;4995344;28;20030;-63
2022/04/13 10:58:46;;;;;;;3.20;1.40;;;21.30;43.90;;;;;;4991885;28;20088;-61
2022/04/13 11:01:14;;;;;;;2.20;1.20;;;21.30;43.90;;;;;;4993686;28;20125;-62
2022/04/13 11:03:41;;;;;;;2.90;1.60;;;21.40;43.90;;;;;;4992305;28;20041;-59
2022/04/13 11:06:08;;;;;;;2.90;1.80;;;21.40;43.80;;;;;;4994879;28;20030;-62
2022/04/13 11:09:26;;;;;;;2.75;1.63;;;21.30;43.70;;;;;;4992847;28;20034;-62
2022/04/13 11:11:56;;;;;;;3.13;1.95;;;21.30;43.40;;;;;;4929330;28;20042;-62
2022/04/13 11:14:23;;;;;;;3.72;2.30;;;21.40;43.20;;;;;;4931829;28;20035;-64
2022/04/13 11:17:13;;;;;;;5.03;2.47;;;21.40;43.00;;;;;;4967465;28;20061;-62
2022/04/13 11:19:41;;;;;;;2.88;1.95;;;21.40;43.00;;;;;;4987365;28;20029;-62
2022/04/13 11:22:06;;;;;;;3.83;2.47;;;21.40;42.90;;;;;;4992570;28;20564;-63
2022/04/13 11:24:52;;;;;;;4.28;2.50;;;21.40;42.80;;;;;;5002534;28;20049;-63
2022/04/13 11:27:17;;;;;;;3.67;2.28;;;21.40;42.80;;;;;;4990445;28;20045;-61
2022/04/13 11:29:57;;;;;;;3.90;2.50;;;21.40;42.80;;;;;;4994655;28;20522;-61
2022/04/13 11:32:31;;;;;;;5.05;2.55;;;21.40;42.70;;;;;;4986148;28;20108;-64
2022/04/13 11:34:56;;;;;;;3.65;2.25;;;21.40;42.90;;;;;;5007388;28;20048;-61
2022/04/13 11:37:24;;;;;;;3.22;2.13;;;21.40;43.00;;;;;;4990082;28;20030;-64
2022/04/13 11:40:06;;;;;;;3.53;2.20;;;21.40;43.00;;;;;;4994428;28;20033;-60
2022/04/13 11:42:40;;;;;;;3.50;2.13;;;21.40;43.00;;;;;;4982549;28;20030;-61
2022/04/13 11:45:16;;;;;;;3.47;2.03;;;21.30;43.00;;;;;;4981877;28;20053;-61
2022/04/13 11:47:57;;;;;;;2.63;1.90;;;21.40;43.50;;;;;;4985308;28;20026;-63
2022/04/13 11:50:27;;;;;;;3.53;2.00;;;21.40;43.70;;;;;;4984513;28;20534;-62
2022/04/13 11:53:14;;;;;;;3.15;1.77;;;21.40;43.70;;;;;;4985140;28;20036;-61
2022/04/13 11:55:39;;;;;;;2.60;1.63;;;21.40;43.50;;;;;;4979961;28;20138;-62
2022/04/13 11:58:07;;;;;;;2.47;1.60;;;21.50;43.50;;;;;;4982175;28;20045;-64
2022/04/13 12:00:35;;;;;;;2.85;1.52;;;21.50;43.50;;;;;;4985234;28;20096;-61
2022/04/13 12:03:01;;;;;;;2.97;1.58;;;21.60;43.40;;;;;;4985253;28;20438;-63
2022/04/13 12:05:27;;;;;;;2.42;1.52;;;21.60;43.40;;;;;;4983065;28;20123;-63
2022/04/13 12:07:53;;;;;;;2.17;1.40;;;21.70;43.40;;;;;;4985836;28;20761;-64
2022/04/13 12:10:19;;;;;;;2.28;1.50;;;21.70;43.40;;;;;;4985288;28;20596;-63
2022/04/13 12:12:55;;;;;;;2.25;1.33;;;21.70;43.40;;;;;;4984378;28;20453;-63
2022/04/13 12:15:23;;;;;;;3.42;1.80;;;21.80;43.40;;;;;;4983706;28;20025;-63
2022/04/13 12:17:49;;;;;;;1.85;1.35;;;21.80;43.40;;;;;;4985240;28;20030;-62
2022/04/13 12:20:28;;;;;;;2.22;1.30;;;21.80;43.50;;;;;;4988022;28;20029;-61
2022/04/13 12:22:53;;;;;;;2.20;1.17;;;21.90;43.60;;;;;;4985089;28;20037;-61
2022/04/13 12:25:20;;;;;;;2.20;1.20;;;21.90;43.60;;;;;;4976650;28;20037;-62
2022/04/13 12:28:06;;;;;;;2.67;1.50;;;21.90;43.90;;;;;;4991434;28;20362;-63
2022/04/13 12:30:32;;;;;;;2.30;1.23;;;21.90;43.90;;;;;;4978659;28;20037;-62
2022/04/13 12:32:57;;;;;;;1.85;1.10;;;22.00;43.90;;;;;;4984330;28;20022;-61
2022/04/13 12:35:23;;;;;;;2.00;1.20;;;22.00;43.70;;;;;;4981747;28;20121;-63
2022/04/13 12:37:54;;;;;;;1.70;1.20;;;22.00;43.70;;;;;;4977002;28;20702;-62
2022/04/13 12:40:26;;;;;;;1.85;1.10;;;22.00;43.60;;;;;;4984034;28;20038;-64
2022/04/13 12:42:53;;;;;;;3.15;1.48;;;22.10;43.70;;;;;;4982836;28;20416;-60
2022/04/13 12:45:19;;;;;;;1.70;1.00;;;22.00;43.60;;;;;;4984378;28;20042;-64
2022/04/13 12:47:46;;;;;;;1.50;0.98;;;22.00;43.50;;;;;;4984987;28;20124;-63
2022/04/13 12:50:12;;;;;;;3.13;1.20;;;22.10;43.50;;;;;;4985581;28;20523;-62